Data for 09/27/2005

Time Sea-Level Adjusted Pressure Absolute Pressure Temperature Relative Humidity Dew Point   
(mb) (inHg) (mb) (inHg) (C) (F) (%) (C) (F)
00:05 1018 30.06 847 25.01 13.9 57 28 -4.4 24.1
00:10 1018 30.06 847 25.01 14.9 58.9 25 -4.8 23.3
00:15 1018 30.06 847 25.01 15.6 60 25 -4.3 24.3
00:20 1018 30.06 847 25.01 15.5 60 32 -1.1 30
00:25 1018 30.06 847 25.01 14.5 58.1 32 -1.9 28.6
00:30 1018 30.06 847 25.01 14 57.3 28 -4.2 24.5
00:35 1018 30.06 847 25.01 14.6 58.2 28 -3.5 25.6
00:40 1018 30.06 847 25.01 14.4 58 29 -3.4 25.8
00:45 1018 30.06 847 25.01 14.1 57.4 32 -2.4 27.7
00:50 1018 30.06 847 25.01 13.3 55.9 37 -0.8 30.5
00:55 1018 30.06 847 25.01 12.6 54.7 36 -2 28.4
01:00 1018 30.06 847 25.01 12.5 54.5 40 -0.7 30.7
01:05 1018 30.06 847 25.01 12.2 54 37 -2 28.4
01:10 1018 30.06 847 25.01 12.1 53.8 36 -2.4 27.7
01:15 1018 30.06 847 25.01 12.3 54.1 35 -2.7 27.1
01:20 1018 30.06 847 25.01 12.1 53.8 38 -1.7 28.9
01:25 1018 30.06 847 25.01 12 53.5 37 -2 28.3
01:30 1018 30.06 847 25.01 11.8 53.3 38 -2 28.5
01:35 1018 30.06 847 25.01 11.8 53.3 37 -2.5 27.6
01:40 1018 30.06 847 25.01 12 53.6 36 -2.4 27.6
01:45 1018 30.06 847 25.01 12.2 54 36 -2.2 28.1
01:50 1018 30.06 847 25.01 12.3 54.2 37 -2 28.5
01:55 1018 30.06 847 25.01 12.3 54.1 35 -2.8 27
02:00 1018 30.06 847 25.01 12.3 54.1 36 -2.3 27.9
02:05 1018 30.06 847 25.01 12.1 53.7 38 -1.7 29
02:10 1018 30.06 847 25.01 11.9 53.4 38 -1.8 28.8
02:15 1018 30.06 847 25.01 11.7 53 42 -0.8 30.6
02:20 1018 30.06 847 25.01 11.3 52.4 40 -1.9 28.7
02:25 1018 30.06 847 25.01 11.3 52.4 41 -1.4 29.4
02:30 1018 30.06 847 25.01 11.4 52.5 39 -2.2 28.1
02:35 1018 30.06 847 25.01 11.6 52.9 35 -3.2 26.2
02:40 1018 30.06 847 25.01 11.9 53.4 35 -2.9 26.7
02:45 1018 30.06 847 25.01 12.1 53.7 35 -2.9 26.8
02:50 1018 30.06 847 25.01 12.3 54.1 35 -2.6 27.4
02:55 1018 30.06 847 25.01 12.5 54.5 35 -2.6 27.4
03:00 1018 30.06 847 25.01 12.3 54.2 39 -1.2 29.8
03:05 1018 30.06 847 25.01 12.3 54.1 42 -0.1 31.8
03:10 1018 30.06 847 25.01 12.1 53.8 39 -1.2 29.8
03:15 1018 30.06 847 25.01 12.2 53.9 47 1.1 34
03:20 1018 30.06 847 25.01 11.5 52.7 48 0.9 33.7
03:25 1018 30.06 847 25.01 11.2 52.1 48 0.6 33.1
03:30 1018 30.06 847 25.01 11.3 52.3 47 0.6 33
03:35 1018 30.06 848 25.04 11.4 52.5 47 0.7 33.2
03:40 1018 30.06 847 25.01 11.4 52.5 42 -1.1 30
03:45 1018 30.06 847 25.01 11.7 53.1 46 0.4 32.8
03:50 1018 30.06 847 25.01 11.5 52.8 41 -1.3 29.6
03:55 1018 30.06 847 25.01 11.9 53.4 39 -1.6 29.1
04:00 1018 30.06 847 25.01 12.4 54.4 42 -0.1 31.8
04:05 1018 30.06 847 25.01 12.1 53.9 44 0.4 32.7
04:10 1018 30.06 848 25.04 11.9 53.4 43 -0.4 31.3
04:15 1018 30.06 847 25.01 12.2 53.9 41 -0.6 31
04:20 1018 30.06 847 25.01 11.9 53.3 46 0.8 33.4
04:25 1018 30.06 847 25.01 11.6 52.8 43 -0.4 31.2
04:30 1018 30.06 847 25.01 11.8 53.2 39 -1.6 29.1
04:35 1018 30.06 848 25.04 12.2 54 41 -0.5 31.1
04:40 1018 30.06 848 25.04 12 53.7 43 -0.2 31.7
04:45 1018 30.06 848 25.04 12 53.5 40 -1 30.1
04:50 1018 30.06 848 25.04 11.8 53.3 41 -1.1 30.1
04:55 1018 30.06 848 25.04 12.1 53.8 38 -1.8 28.8
05:00 1018 30.06 848 25.04 12.3 54.2 40 -1 30.3
05:05 1018 30.06 848 25.04 12.5 54.5 37 -1.7 28.9
05:10 1018 30.06 848 25.04 12.5 54.5 40 -0.8 30.5
05:15 1018 30.06 848 25.04 12.3 54.2 40 -0.7 30.7
05:20 1018 30.06 848 25.04 12.3 54.1 38 -1.4 29.5
05:25 1019 30.09 848 25.04 12.2 53.9 43 -0.1 31.8
05:30 1018 30.06 848 25.04 11.8 53.2 44 -0.1 31.8
05:35 1019 30.09 848 25.04 11.8 53.2 37 -2.3 27.9
05:40 1018 30.06 848 25.04 12.5 54.5 34 -3 26.7
05:45 1019 30.09 848 25.04 13.1 55.6 34 -2.1 28.2
05:50 1019 30.09 848 25.04 13 55.3 40 -0.2 31.6
05:55 1018 30.06 847 25.01 12 53.7 39 -1.5 29.3
06:00 1018 30.06 847 25.01 11.4 52.5 49 1 33.9
06:05 1018 30.06 848 25.04 10.6 51.1 51 0.9 33.6
06:10 1019 30.09 848 25.04 10.9 51.6 47 0.1 32.3
06:15 1019 30.09 848 25.04 11.3 52.4 44 -0.5 31.1
06:20 1018 30.06 848 25.04 11.3 52.3 46 0.3 32.5
06:25 1018 30.06 847 25.01 10.8 51.5 51 1.2 34.1
06:30 1018 30.06 848 25.04 10.3 50.5 51 0.6 33.1
06:35 1019 30.09 848 25.04 10.6 51 47 -0.2 31.6
06:40 1019 30.09 848 25.04 11.1 51.9 43 -1.1 30
06:45 1019 30.09 848 25.04 11.2 52.2 46 0.2 32.3
06:50 1018 30.06 847 25.01 10.6 51.1 51 0.9 33.7
06:55 1018 30.06 847 25.01 10.2 50.4 50 0.2 32.3
07:00 1018 30.06 847 25.01 10.5 50.8 48 -0.1 31.9
07:05 1018 30.06 847 25.01 11 51.7 47 0 32
07:10 1018 30.06 847 25.01 10.8 51.4 46 -0.2 31.6
07:15 1018 30.06 847 25.01 10.6 51 48 0.2 32.3
07:20 1018 30.06 847 25.01 10.7 51.3 40 -2.3 27.8
07:25 1018 30.06 847 25.01 11.8 53.2 39 -1.8 28.8
07:30 1018 30.06 847 25.01 12.2 54 33 -3.4 25.8
07:35 1018 30.06 847 25.01 12.7 54.9 39 -0.7 30.8
07:40 1018 30.06 847 25.01 11.8 53.2 42 -0.5 31
07:45 1017 30.03 847 25.01 11.2 52.1 45 -0.3 31.5
07:50 1018 30.06 847 25.01 11.3 52.3 44 -0.5 31.2
07:55 1018 30.06 847 25.01 11.4 52.6 42 -0.8 30.5
08:00 1018 30.06 847 25.01 11.8 53.2 40 -1.3 29.6
08:05 1018 30.06 847 25.01 12.1 53.7 39 -1.2 29.8
08:10 1018 30.06 847 25.01 12.3 54.2 41 -0.5 31.1
08:15 1018 30.06 847 25.01 12.2 54 41 -0.4 31.2
08:20 1018 30.06 847 25.01 12.8 55 44 0.8 33.5
08:25 1018 30.06 847 25.01 12.6 54.7 43 0.5 32.9
08:30 1018 30.06 847 25.01 12.6 54.7 35 -2.5 27.4
08:35 1018 30.06 847 25.01 12.8 55 39 -0.8 30.5
08:40 1018 30.06 847 25.01 12.9 55.1 43 0.6 33.1
08:45 1018 30.06 847 25.01 13.6 56.4 41 0.8 33.4
08:50 1018 30.06 847 25.01 13.9 56.9 39 0.4 32.7
08:55 1018 30.06 847 25.01 13.9 57.1 47 2.9 37.3
09:00 1018 30.06 847 25.01 13.5 56.3 50 3.4 38.1
09:05 1018 30.06 847 25.01 13.3 55.9 46 1.9 35.4
09:10 1018 30.06 847 25.01 13.6 56.4 47 2.5 36.4
09:15 1018 30.06 847 25.01 14.2 57.5 45 2.5 36.6
09:20 1018 30.06 847 25.01 14.8 58.7 41 1.8 35.3
09:25 1018 30.06 847 25.01 15.7 60.2 35 0.4 32.7
09:30 1018 30.06 847 25.01 16 60.7 34 0.3 32.5
09:35 1018 30.06 847 25.01 16.4 61.5 32 -0.3 31.4
09:40 1018 30.06 847 25.01 17.1 62.7 30 -0.4 31.2
09:45 1018 30.06 847 25.01 17.9 64.2 27 -1.3 29.6
09:50 1018 30.06 847 25.01 18.4 65.1 26 -1.1 30
09:55 1018 30.06 847 25.01 18.5 65.3 25 -1.8 28.8
10:00 1018 30.06 848 25.04 18.7 65.7 26 -0.9 30.3
10:05 1018 30.06 848 25.04 18.8 65.8 29 0.3 32.6
10:10 1018 30.06 848 25.04 18.2 64.7 29 0.1 32.1
10:15 1018 30.06 848 25.04 18.6 65.6 28 -0.1 31.8
10:20 1018 30.06 848 25.04 18.9 66.1 28 0 32
10:25 1018 30.06 848 25.04 18.7 65.6 28 -0.1 31.8
10:30 1018 30.06 847 25.01 18.5 65.4 26 -1.1 30
10:35 1018 30.06 847 25.01 18.3 64.9 28 -0.6 30.9
10:40 1018 30.06 847 25.01 18.2 64.7 27 -0.8 30.5
10:45 1018 30.06 847 25.01 18.1 64.5 26 -1.7 29
10:50 1018 30.06 847 25.01 18 64.3 26 -1.7 29
10:55 1018 30.06 847 25.01 17.8 64 25 -2.3 27.9
11:00 1018 30.06 847 25.01 17.7 63.8 26 -2 28.4
11:05 1018 30.06 847 25.01 17.8 64 28 -1 30.1
11:10 1018 30.06 847 25.01 17.7 63.9 28 -1 30.3
11:15 1018 30.06 847 25.01 17.9 64.1 28 -0.7 30.7
11:20 1018 30.06 847 25.01 17.7 63.8 28 -0.8 30.5
11:25 1018 30.06 847 25.01 17.1 62.7 34 1 33.9
11:30 1018 30.06 847 25.01 17.2 63 32 0.5 32.9
11:35 1018 30.06 847 25.01 17.4 63.3 32 0.6 33.1
11:40 1018 30.06 847 25.01 17.2 63 32 0.7 33.3
11:45 1018 30.06 847 25.01 17.1 62.8 33 0.8 33.5
11:50 1018 30.06 847 25.01 16.9 62.5 32 0.5 32.8
11:55 1018 30.06 847 25.01 17.1 62.8 32 0.4 32.8
12:00 1018 30.06 847 25.01 17.3 63.1 33 1 33.7
12:05 1018 30.06 847 25.01 17.4 63.4 29 -0.6 30.9
12:10 1018 30.06 847 25.01 17 62.7 30 -0.4 31.2
12:15 1018 30.06 847 25.01 17.4 63.4 27 -1.4 29.4
12:20 1018 30.06 847 25.01 18.2 64.7 28 -0.4 31.3
12:25 1018 30.06 847 25.01 18.6 65.4 29 0.3 32.6
12:30 1018 30.06 847 25.01 18.4 65.1 34 2.5 36.5
12:35 1018 30.06 847 25.01 18.5 65.3 30 0.9 33.5
12:40 1018 30.06 847 25.01 18.4 65.1 30 0.8 33.4
12:45 1018 30.06 847 25.01 19.8 67.7 24 -1 30.3
12:50 1018 30.06 847 25.01 20.5 68.8 26 0.5 32.9
12:55 1017 30.03 847 25.01 21.1 70 23 -0.6 30.9
13:00 1017 30.03 847 25.01 21.1 70 24 -0.1 31.8
13:05 1017 30.03 847 25.01 20.6 69 25 0.1 32.2
13:10 1017 30.03 847 25.01 20.1 68.2 27 0.5 32.8
13:15 1017 30.03 847 25.01 19.2 66.6 27 0.1 32.1
13:20 1017 30.03 846 24.98 19.7 67.5 26 0.1 32.2
13:25 1017 30.03 846 24.98 20.1 68.1 26 0.2 32.4
13:30 1017 30.03 846 24.98 20.4 68.7 26 0.5 32.9
13:35 1017 30.03 846 24.98 21 69.8 26 0.9 33.6
13:40 1017 30.03 846 24.98 21 69.8 26 1 33.8
13:45 1017 30.03 846 24.98 20.1 68.2 27 0.7 33.2
13:50 1017 30.03 846 24.98 20.1 68.2 26 0.3 32.5
13:55 1017 30.03 846 24.98 20.8 69.5 25 0.2 32.4
14:00 1017 30.03 846 24.98 21.1 69.9 24 0.1 32.2
14:05 1017 30.03 846 24.98 21.4 70.4 24 0.4 32.7
14:10 1017 30.03 846 24.98 21.8 71.2 23 0.2 32.3
14:15 1017 30.03 846 24.98 21.9 71.4 24 0.4 32.7
14:20 1017 30.03 846 24.98 21.6 70.9 23 0 32.1
14:25 1017 30.03 846 24.98 21 69.8 24 -0.1 31.8
14:30 1017 30.03 846 24.98 21 69.7 23 -0.6 30.9
14:35 1017 30.03 846 24.98 21.3 70.3 23 -0.7 30.8
14:40 1017 30.03 846 24.98 21.4 70.5 22 -0.9 30.4
14:45 1017 30.03 846 24.98 21.2 70.2 23 -0.6 30.9
14:50 1017 30.03 846 24.98 21.3 70.3 22 -0.9 30.4
14:55 1017 30.03 846 24.98 21 69.9 23 -0.6 31
15:00 1017 30.03 846 24.98 20.5 68.8 24 -0.9 30.4
15:05 1017 30.03 846 24.98 21.1 70 23 -0.7 30.8
15:10 1017 30.03 846 24.98 21.3 70.4 24 0.1 32.1
15:15 1017 30.03 846 24.98 21.7 71.1 23 -0.3 31.4
15:20 1017 30.03 846 24.98 20.9 69.7 25 0.1 32.2
15:25 1017 30.03 846 24.98 21.1 70 24 0.1 32.2
15:30 1017 30.03 846 24.98 20.7 69.2 24 -0.2 31.7
15:35 1017 30.03 846 24.98 20.4 68.8 24 -0.6 30.9
15:40 1017 30.03 846 24.98 20.9 69.7 24 -0.1 31.8
15:45 1017 30.03 846 24.98 21.2 70.2 23 -0.4 31.3
15:50 1017 30.03 846 24.98 21 69.8 24 -0.3 31.4
15:55 1017 30.03 846 24.98 21.5 70.7 23 -0.2 31.7
16:00 1017 30.03 846 24.98 21.3 70.4 23 -0.2 31.7
16:05 1017 30.03 846 24.98 21.1 70 23 -0.4 31.3
16:10 1017 30.03 846 24.98 21 69.8 23 -0.6 31
16:15 1017 30.03 846 24.98 20.4 68.6 24 -0.8 30.6
16:20 1017 30.03 846 24.98 20.9 69.5 23 -0.8 30.5
16:25 1017 30.03 846 24.98 21.4 70.4 21 -1.6 29.1
16:30 1017 30.03 846 24.98 21.2 70.1 22 -1.5 29.4
16:35 1017 30.03 846 24.98 20.3 68.5 23 -1.1 30
16:40 1017 30.03 846 24.98 20.5 68.8 22 -1.8 28.7
16:45 1017 30.03 846 24.98 20.8 69.5 22 -1.4 29.4
16:50 1017 30.03 846 24.98 20.6 69.1 22 -1.9 28.6
16:55 1017 30.03 846 24.98 20.4 68.8 22 -2 28.3
17:00 1017 30.03 846 24.98 21.2 70.1 22 -1.3 29.7
17:05 1017 30.03 846 24.98 21.3 70.3 21 -1.5 29.3
17:10 1017 30.03 846 24.98 21 69.7 21 -1.8 28.8
17:15 1017 30.03 846 24.98 20.5 68.9 23 -1.2 29.8
17:20 1017 30.03 846 24.98 20.4 68.7 25 -0.3 31.5
17:25 1017 30.03 846 24.98 20.6 69 24 -0.6 30.9
17:30 1017 30.03 847 25.01 20.7 69.3 25 0.1 32.1
17:35 1018 30.06 847 25.01 20.4 68.8 30 2.4 36.2
17:40 1018 30.06 847 25.01 19.8 67.7 30 2.1 35.8
17:45 1018 30.06 847 25.01 19.9 67.7 29 1.6 34.9
17:50 1018 30.06 847 25.01 19.6 67.3 30 1.8 35.3
17:55 1018 30.06 848 25.04 18.5 65.3 37 3.8 38.8
18:00 1019 30.09 848 25.04 17.3 63.1 39 3.4 38.1
18:05 1019 30.09 848 25.04 16.1 61.1 44 4 39.1
18:10 1019 30.09 848 25.04 15.3 59.5 48 4.4 40
18:15 1019 30.09 848 25.04 14.6 58.3 49 4.2 39.6
18:20 1019 30.09 848 25.04 14.5 58 50 4.1 39.5
18:25 1019 30.09 849 25.07 14.2 57.5 51 4.1 39.5
18:30 1020 30.12 849 25.07 13.9 57.1 51 4.1 39.4
18:35 1020 30.12 849 25.07 13.8 56.8 51 3.9 39.1
18:40 1020 30.12 849 25.07 13.7 56.6 52 4 39.2
18:45 1020 30.12 849 25.07 13.4 56.1 53 4.1 39.3
18:50 1020 30.12 849 25.07 13.2 55.7 53 3.9 39
18:55 1020 30.12 850 25.1 13 55.3 54 3.9 39
19:00 1021 30.15 850 25.1 12.8 55.1 54 3.8 38.9
19:05 1021 30.15 850 25.1 12.7 54.8 55 3.9 39
19:10 1021 30.15 850 25.1 12.5 54.5 56 3.9 39.1
19:15 1021 30.15 850 25.1 12.4 54.3 56 4 39.2
19:20 1021 30.15 850 25.1 12.3 54.1 56 3.8 38.8
19:25 1021 30.15 851 25.13 12.2 53.9 56 3.8 38.8
19:30 1022 30.18 851 25.13 11.7 53 55 3 37.4
19:35 1022 30.18 851 25.13 11.1 51.9 56 2.6 36.7
19:40 1022 30.18 852 25.16 10.6 51.1 57 2.6 36.6
19:45 1023 30.21 852 25.16 10.7 51.2 57 2.6 36.6
19:50 1023 30.21 852 25.16 10.6 51.1 58 2.7 36.9
19:55 1023 30.21 852 25.16 10.4 50.7 58 2.6 36.7
20:00 1023 30.21 853 25.19 9.8 49.7 61 2.7 36.9
20:05 1023 30.21 853 25.19 9.4 48.9 62 2.5 36.5
20:10 1024 30.24 853 25.19 9.1 48.4 62 2.3 36.2
20:15 1024 30.24 853 25.19 9 48.3 64 2.6 36.6
20:20 1024 30.24 853 25.19 8.6 47.4 66 2.6 36.7
20:25 1024 30.24 853 25.19 8.4 47.1 64 2.1 35.7
20:30 1024 30.24 853 25.19 8.2 46.8 64 2 35.5
20:35 1024 30.24 854 25.22 8.3 46.9 63 1.7 35.1
20:40 1025 30.27 854 25.22 8.2 46.8 64 1.8 35.3
20:45 1025 30.27 854 25.22 8.2 46.8 64 1.8 35.2
20:50 1025 30.27 854 25.22 8.2 46.7 63 1.6 34.8
20:55 1025 30.27 854 25.22 8.2 46.8 63 1.6 34.9
21:00 1025 30.27 854 25.22 8.2 46.7 62 1.3 34.4
21:05 1025 30.27 854 25.22 8.1 46.6 62 1.3 34.3
21:10 1025 30.27 854 25.22 8.1 46.6 62 1.3 34.3
21:15 1025 30.27 854 25.22 8.1 46.5 62 1.2 34.1
21:20 1025 30.27 855 25.25 8 46.4 62 1.2 34.1
21:25 1025 30.27 855 25.25 8 46.4 63 1.3 34.4
21:30 1025 30.27 855 25.25 8 46.3 63 1.3 34.4
21:35 1026 30.3 855 25.25 7.8 46 63 1.3 34.3
21:40 1026 30.3 855 25.25 7.6 45.8 64 1.3 34.3
21:45 1026 30.3 855 25.25 7.6 45.6 64 1.2 34.1
21:50 1026 30.3 855 25.25 7.5 45.4 64 1.1 34
21:55 1026 30.3 855 25.25 7.4 45.3 64 1.1 34
22:00 1026 30.3 855 25.25 7.3 45.2 64 1 33.8
22:05 1026 30.3 855 25.25 7.2 45 65 1 33.9
22:10 1026 30.3 855 25.25 7.1 44.8 65 1.1 33.9
22:15 1026 30.3 856 25.28 7.1 44.7 65 1 33.8
22:20 1026 30.3 856 25.28 6.8 44.2 67 1.1 33.9
22:25 1027 30.33 856 25.28 6.5 43.8 68 1 33.8
22:30 1027 30.33 856 25.28 6.6 43.8 67 1 33.8
22:35 1027 30.33 856 25.28 6.4 43.5 70 1.2 34.2
22:40 1027 30.33 856 25.28 6.1 42.9 72 1.3 34.4
22:45 1027 30.33 856 25.28 6.1 42.9 73 1.6 34.9
22:50 1027 30.33 856 25.28 5.6 42.1 75 1.6 34.9
22:55 1027 30.33 856 25.28 5.4 41.7 75 1.3 34.4
23:00 1027 30.33 856 25.28 5.1 41.1 78 1.6 34.8
23:05 1027 30.33 856 25.28 4.9 40.8 77 1.1 34
23:10 1027 30.33 856 25.28 5.3 41.5 74 1.1 33.9
23:15 1027 30.33 856 25.28 5.3 41.6 75 1.2 34.2
23:20 1027 30.33 857 25.31 5.2 41.4 75 1.1 33.9
23:25 1027 30.33 857 25.31 4.9 40.9 76 1.2 34.1
23:30 1028 30.36 857 25.31 4.3 39.7 79 0.9 33.7
23:35 1028 30.36 857 25.31 3.7 38.7 83 1 33.9
23:40 1028 30.36 857 25.31 3.5 38.3 83 0.9 33.7
23:45 1028 30.36 857 25.31 3.5 38.2 85 1.1 34
23:50 1028 30.36 857 25.31 3.5 38.2 84 1.1 33.9
23:55 1028 30.36 857 25.31 3.6 38.4 83 1 33.8
24:00 1028 30.36 857 25.31 3.8 38.8 83 1.2 34.1